Terminal Aerodrome Forecast
Issued by NWS

Home | Current Version | Previous Version | Graphics & Text | Print | Product List | Glossary On
Versions: 1 2 3 4 5 6 7 8 9 10 11 12 13 14 15 16 17 18 19
000
FTUS43 KLSX 142000 AAB
TAFSUS
TAF AMD
KSUS 142051Z 1421/1518 32014G22KT 4SM -DZ BR OVC016
     FM142130 33016G24KT 5SM -SN OVC018
      TEMPO 1422/1424 1SM -SN OVC008
     FM150100 33014KT P6SM BKN035
     FM150600 32007KT P6SM SKC=

USA.gov is the U.S. government's official web portal to all federal, state and local government web resources and services.